Terminal Aerodrome Forecast
Issued by NWS Billings, MT

Home | Current Version | Previous Version | Text Only | Print | Product List | Glossary On
Versions: 1 2 3 4 5 6 7 8 9 10 11 12 13 14 15 16 17 18 19 20 21 22 23 24 25 26 27 28 29 30 31 32 33 34 35
722
FTUS45 KBYZ 132024 AAB
TAFSHR
TAF AMD
KSHR 132024Z 1320/1418 31040G53KT 3SM -SHRASN SCT015 BKN035
      TEMPO 1320/1323 1SM -SN BLSN BKN015
     FM132300 31020G35KT P6SM VCSH BKN050
     FM140300 31018G28KT P6SM BKN050
     FM140700 30011KT P6SM OVC050
     FM141500 30010KT P6SM VCSH OVC050=

USA.gov is the U.S. government's official web portal to all federal, state and local government web resources and services.